Time;durP1;ratioP1;P1;durP2;ratioP2;P2;SDS_P1;SDS_P2;PMS_P1;PMS_P2;Temp;Humidity;BMP_temperature;BMP_pressure;BME280_temperature;BME280_humidity;BME280_pressure;Samples;Min_cycle;Max_cycle;Signal;HPM_P1;HPM_P2
2023/09/24 00:01:00;;;;;;;1.05;0.57;;;20.10;91.30;;;;;;6214736;23;20005;-87
2023/09/24 00:03:26;;;;;;;0.45;0.40;;;20.10;91.40;;;;;;6215068;23;20000;-87
2023/09/24 00:05:52;;;;;;;1.05;0.45;;;20.10;91.50;;;;;;6215159;23;20004;-90
2023/09/24 00:08:18;;;;;;;1.40;0.30;;;20.00;91.60;;;;;;6214530;23;20308;-92
2023/09/24 00:10:52;;;;;;;1.05;0.40;;;20.00;91.60;;;;;;6214708;23;20427;-92
2023/09/24 00:13:22;;;;;;;1.15;0.40;;;20.00;91.60;;;;;;6213377;23;20416;-92
2023/09/24 00:15:49;;;;;;;2.53;0.30;;;20.00;91.50;;;;;;6215255;23;20001;-91
2023/09/24 00:18:17;;;;;;;0.30;0.30;;;20.00;91.50;;;;;;6214833;23;20234;-91
2023/09/24 00:20:43;;;;;;;0.60;0.30;;;20.00;91.50;;;;;;6212917;23;20043;-89
2023/09/24 00:23:10;;;;;;;1.15;0.60;;;19.90;91.60;;;;;;6215341;23;20112;-90
2023/09/24 00:25:36;;;;;;;1.35;0.40;;;19.90;91.70;;;;;;6215021;23;20001;-88
2023/09/24 00:28:03;;;;;;;0.63;0.30;;;19.90;91.90;;;;;;6216535;23;20459;-90
2023/09/24 00:30:29;;;;;;;1.95;0.40;;;19.90;91.70;;;;;;6217596;23;20092;-90
2023/09/24 00:32:55;;;;;;;0.38;0.30;;;19.90;91.80;;;;;;6215632;23;20051;-91
2023/09/24 00:35:22;;;;;;;2.13;0.30;;;19.90;91.80;;;;;;6216763;23;20004;-91
2023/09/24 00:37:48;;;;;;;0.40;0.28;;;19.90;91.80;;;;;;6215359;23;20004;-90
2023/09/24 00:40:14;;;;;;;0.85;0.25;;;19.90;91.80;;;;;;6216605;23;20011;-91
2023/09/24 00:42:40;;;;;;;0.40;0.30;;;19.90;91.80;;;;;;6216723;23;20131;-87
2023/09/24 00:45:10;;;;;;;1.63;0.57;;;20.00;92.00;;;;;;6216490;23;20079;-87
2023/09/24 00:47:42;;;;;;;0.65;0.30;;;20.00;91.60;;;;;;6216974;23;20011;-87
2023/09/24 00:50:10;;;;;;;0.80;0.20;;;19.90;91.60;;;;;;6215644;23;20502;-87
2023/09/24 00:52:36;;;;;;;3.83;0.68;;;19.90;91.60;;;;;;6216700;23;20415;-87
2023/09/24 00:55:05;;;;;;;0.77;0.50;;;19.90;91.60;;;;;;6216575;23;20068;-87
2023/09/24 00:57:32;;;;;;;2.40;0.40;;;19.90;91.50;;;;;;6216788;23;20008;-87
2023/09/24 01:00:00;;;;;;;0.15;0.13;;;19.90;91.60;;;;;;6216039;23;20016;-88
2023/09/24 01:02:32;;;;;;;0.60;0.30;;;19.90;91.70;;;;;;6216273;23;20450;-89
2023/09/24 01:05:00;;;;;;;1.15;0.30;;;19.90;91.70;;;;;;6216338;23;20008;-90
2023/09/24 01:07:26;;;;;;;0.63;0.40;;;19.90;91.70;;;;;;6216105;23;20083;-89
2023/09/24 01:09:53;;;;;;;0.20;0.20;;;19.90;91.70;;;;;;6216170;23;19997;-91
2023/09/24 01:12:23;;;;;;;0.70;0.20;;;19.90;91.80;;;;;;6216643;23;20007;-91
2023/09/24 01:14:49;;;;;;;1.35;0.40;;;19.90;91.50;;;;;;6216146;23;20015;-90
2023/09/24 01:17:18;;;;;;;0.52;0.28;;;19.90;91.50;;;;;;6216737;23;20028;-90
2023/09/24 01:19:44;;;;;;;0.15;0.10;;;20.00;91.50;;;;;;6216524;23;20004;-90
2023/09/24 01:22:09;;;;;;;0.52;0.20;;;20.00;92.00;;;;;;6216217;23;20001;-91
2023/09/24 01:24:35;;;;;;;0.47;0.20;;;20.10;91.80;;;;;;6216440;23;20031;-91
2023/09/24 01:27:01;;;;;;;0.60;0.28;;;20.10;91.40;;;;;;6214789;23;20058;-91
2023/09/24 01:29:26;;;;;;;1.27;0.40;;;20.00;91.20;;;;;;6215985;23;20012;-90
2023/09/24 01:31:52;;;;;;;0.45;0.30;;;20.10;91.00;;;;;;6214736;23;20012;-91
2023/09/24 01:34:19;;;;;;;0.80;0.30;;;20.00;91.00;;;;;;6190194;23;20015;-91
2023/09/24 01:36:45;;;;;;;0.75;0.50;;;20.00;91.00;;;;;;6215992;23;20367;-91
2023/09/24 01:39:17;;;;;;;1.02;0.30;;;20.00;91.10;;;;;;6216356;23;20055;-91
2023/09/24 01:41:43;;;;;;;0.20;0.20;;;20.00;90.80;;;;;;6216586;23;20438;-91
2023/09/24 01:44:08;;;;;;;1.05;0.30;;;20.00;90.70;;;;;;6215876;23;20016;-91
2023/09/24 01:46:34;;;;;;;0.32;0.22;;;20.10;90.50;;;;;;6216064;23;20423;-92
2023/09/24 01:49:01;;;;;;;0.63;0.40;;;20.00;90.20;;;;;;6216627;23;19997;-90
2023/09/24 01:51:26;;;;;;;0.20;0.20;;;20.00;90.40;;;;;;6216396;23;20001;-91
2023/09/24 01:53:52;;;;;;;0.40;0.40;;;20.00;90.50;;;;;;6216358;23;20024;-91
2023/09/24 01:56:19;;;;;;;3.13;0.32;;;20.00;90.70;;;;;;6216033;23;19996;-91
2023/09/24 01:58:45;;;;;;;0.45;0.30;;;20.10;90.40;;;;;;6216207;23;20362;-92
2023/09/24 02:01:11;;;;;;;0.73;0.30;;;20.00;90.40;;;;;;6216276;23;20467;-92
2023/09/24 02:03:37;;;;;;;1.17;0.22;;;19.90;90.30;;;;;;6216880;23;20012;-94
2023/09/24 02:06:04;;;;;;;0.32;0.20;;;19.90;90.50;;;;;;6216605;23;20009;-93
2023/09/24 02:08:30;;;;;;;0.28;0.25;;;20.00;90.60;;;;;;6216619;23;20408;-94
2023/09/24 02:10:56;;;;;;;0.98;0.35;;;20.00;90.60;;;;;;6214335;23;20028;-86
2023/09/24 02:13:22;;;;;;;0.40;0.30;;;20.00;90.70;;;;;;6215416;23;20008;-86
2023/09/24 02:15:48;;;;;;;1.02;0.20;;;20.00;90.70;;;;;;6214903;23;20000;-86
2023/09/24 02:18:15;;;;;;;0.20;0.20;;;19.90;90.60;;;;;;6214993;23;20012;-87
2023/09/24 02:20:43;;;;;;;0.57;0.20;;;19.90;90.90;;;;;;6214786;23;20011;-87
2023/09/24 02:23:10;;;;;;;0.85;0.30;;;19.90;91.00;;;;;;6215043;23;20012;-87
2023/09/24 02:25:37;;;;;;;1.10;0.40;;;19.90;91.00;;;;;;6215405;23;20008;-85
2023/09/24 02:28:04;;;;;;;0.98;0.35;;;19.90;91.00;;;;;;6215645;23;20009;-87
2023/09/24 02:30:34;;;;;;;2.17;0.20;;;19.90;91.30;;;;;;6215983;23;20028;-88
2023/09/24 02:33:02;;;;;;;0.60;0.38;;;19.90;91.30;;;;;;6215356;23;19996;-88
2023/09/24 02:35:29;;;;;;;0.28;0.13;;;19.90;91.10;;;;;;6215262;23;19996;-88
2023/09/24 02:37:54;;;;;;;2.22;0.40;;;19.90;91.00;;;;;;6215596;23;20407;-88
2023/09/24 02:40:23;;;;;;;1.33;0.35;;;19.90;91.00;;;;;;6215491;23;20011;-88
2023/09/24 02:42:53;;;;;;;0.73;0.25;;;19.90;91.00;;;;;;6215359;23;20000;-88
2023/09/24 02:45:19;;;;;;;0.95;0.30;;;19.80;91.00;;;;;;6214973;23;20001;-88
2023/09/24 02:47:45;;;;;;;1.30;0.20;;;19.90;91.00;;;;;;6213771;23;20059;-88
2023/09/24 02:50:15;;;;;;;0.73;0.30;;;19.90;91.10;;;;;;6215196;23;19997;-87
2023/09/24 02:52:42;;;;;;;0.50;0.28;;;19.80;91.00;;;;;;6215947;23;19996;-87
2023/09/24 02:55:13;;;;;;;0.70;0.13;;;19.80;91.00;;;;;;6214247;23;20000;-88
2023/09/24 02:57:40;;;;;;;1.23;0.40;;;19.80;91.10;;;;;;6215418;23;20351;-86
2023/09/24 03:00:15;;;;;;;0.55;0.28;;;19.80;91.10;;;;;;6215263;23;20001;-86
2023/09/24 03:02:41;;;;;;;0.95;0.20;;;19.80;91.30;;;;;;6215441;23;20000;-85
2023/09/24 03:05:11;;;;;;;0.57;0.45;;;19.80;91.10;;;;;;6215539;23;20005;-86
2023/09/24 03:07:40;;;;;;;0.60;0.30;;;19.80;91.40;;;;;;6215550;23;20347;-86
2023/09/24 03:10:06;;;;;;;0.50;0.30;;;19.80;91.20;;;;;;6214772;23;20311;-85
2023/09/24 03:12:33;;;;;;;0.70;0.52;;;19.80;91.20;;;;;;6215263;23;20008;-85
2023/09/24 03:14:59;;;;;;;0.95;0.35;;;19.80;91.30;;;;;;6215420;23;20392;-84
2023/09/24 03:17:25;;;;;;;0.73;0.20;;;19.90;91.30;;;;;;6213507;23;20431;-84
2023/09/24 03:19:57;;;;;;;1.13;0.30;;;19.80;91.30;;;;;;6214329;23;20040;-84
2023/09/24 03:22:22;;;;;;;2.92;0.50;;;19.80;91.30;;;;;;6212761;23;20029;-83
2023/09/24 03:24:48;;;;;;;0.80;0.30;;;19.80;91.30;;;;;;6215089;23;20801;-83
2023/09/24 03:27:15;;;;;;;4.63;0.68;;;19.70;91.40;;;;;;6214754;23;20001;-85
2023/09/24 03:29:43;;;;;;;1.00;0.28;;;19.70;91.50;;;;;;6215324;23;19997;-86
2023/09/24 03:32:09;;;;;;;0.60;0.47;;;19.70;91.50;;;;;;6214966;23;19996;-86
2023/09/24 03:34:35;;;;;;;0.40;0.30;;;19.70;91.60;;;;;;6214729;23;20007;-86
2023/09/24 03:37:00;;;;;;;1.05;0.70;;;19.80;91.60;;;;;;6215453;23;20104;-86
2023/09/24 03:39:26;;;;;;;1.60;0.73;;;19.70;91.50;;;;;;6214801;23;20008;-86
2023/09/24 03:41:52;;;;;;;1.23;0.60;;;19.70;91.50;;;;;;6215622;23;20004;-87
2023/09/24 03:44:17;;;;;;;0.90;0.63;;;19.70;91.60;;;;;;6214699;23;20058;-87
2023/09/24 03:46:43;;;;;;;0.93;0.60;;;19.80;91.70;;;;;;6214897;23;20004;-87
2023/09/24 03:49:11;;;;;;;3.40;1.27;;;19.80;91.60;;;;;;6215232;23;20004;-87
2023/09/24 03:51:37;;;;;;;0.98;0.60;;;19.80;91.60;;;;;;6215117;23;20027;-86
2023/09/24 03:54:03;;;;;;;1.40;0.70;;;19.80;91.60;;;;;;6215135;23;20024;-85
2023/09/24 03:56:28;;;;;;;3.75;0.98;;;19.80;91.60;;;;;;6215083;23;20010;-85
2023/09/24 03:58:54;;;;;;;1.20;0.70;;;19.80;91.60;;;;;;6214501;23;20032;-85
2023/09/24 04:01:20;;;;;;;0.93;0.80;;;19.80;91.60;;;;;;6217216;23;20419;-85
2023/09/24 04:03:46;;;;;;;2.40;0.55;;;19.80;91.70;;;;;;6217544;23;19996;-89
2023/09/24 04:06:12;;;;;;;1.77;0.90;;;19.80;91.60;;;;;;6217195;23;20075;-89
2023/09/24 04:08:38;;;;;;;1.20;0.77;;;19.80;91.70;;;;;;6216505;23;20425;-86
2023/09/24 04:11:17;;;;;;;1.35;0.90;;;19.80;91.70;;;;;;6216312;23;20011;-86
2023/09/24 04:13:43;;;;;;;2.95;1.48;;;19.80;91.70;;;;;;6217264;23;20020;-86
2023/09/24 04:16:09;;;;;;;1.70;0.80;;;19.80;91.70;;;;;;6217073;23;20006;-86
2023/09/24 04:18:35;;;;;;;1.80;0.88;;;19.80;91.70;;;;;;6216897;23;20075;-86
2023/09/24 04:21:02;;;;;;;1.90;0.73;;;19.80;91.70;;;;;;6216815;23;20024;-86
2023/09/24 04:23:28;;;;;;;0.90;0.75;;;19.80;91.70;;;;;;6216989;23;20054;-86
2023/09/24 04:25:54;;;;;;;1.17;0.73;;;19.80;91.70;;;;;;6216638;23;20009;-87
2023/09/24 04:28:20;;;;;;;1.48;0.70;;;19.90;91.70;;;;;;6216839;23;20379;-85
2023/09/24 04:30:46;;;;;;;1.40;0.93;;;19.80;91.70;;;;;;6216701;23;20075;-85
2023/09/24 04:33:12;;;;;;;1.85;0.70;;;19.80;91.80;;;;;;6216687;23;20027;-84
2023/09/24 04:35:38;;;;;;;0.70;0.60;;;19.80;91.80;;;;;;6216275;23;20040;-84
2023/09/24 04:38:07;;;;;;;1.25;0.80;;;19.80;91.80;;;;;;6217030;23;20319;-85
2023/09/24 04:40:34;;;;;;;0.70;0.68;;;19.80;91.90;;;;;;6216381;23;20377;-84
2023/09/24 04:42:59;;;;;;;1.75;0.80;;;19.80;91.90;;;;;;6216905;23;20008;-84
2023/09/24 04:45:25;;;;;;;1.05;0.73;;;19.80;91.90;;;;;;6216451;23;20004;-86
2023/09/24 04:47:51;;;;;;;1.75;0.73;;;19.80;92.00;;;;;;6216997;23;20057;-83
2023/09/24 04:50:17;;;;;;;2.53;1.23;;;19.80;92.00;;;;;;6214176;23;20004;-83
2023/09/24 04:52:46;;;;;;;1.88;0.80;;;19.80;92.00;;;;;;6216683;23;20007;-83
2023/09/24 04:55:13;;;;;;;1.90;1.20;;;19.80;92.10;;;;;;6216179;23;20000;-82
2023/09/24 04:57:39;;;;;;;1.58;1.13;;;19.80;92.00;;;;;;6216765;23;20028;-83
2023/09/24 05:00:06;;;;;;;1.98;1.10;;;19.80;92.00;;;;;;6215933;23;20001;-82
2023/09/24 05:02:31;;;;;;;1.92;1.02;;;19.70;92.00;;;;;;6216716;23;20039;-82
2023/09/24 05:04:57;;;;;;;2.42;1.27;;;19.70;92.10;;;;;;6216068;23;20005;-82
2023/09/24 05:07:23;;;;;;;1.50;0.68;;;19.80;92.10;;;;;;6216048;23;20001;-82
2023/09/24 05:09:52;;;;;;;2.88;1.42;;;19.80;92.10;;;;;;6216193;23;20043;-83
2023/09/24 05:12:18;;;;;;;2.33;1.00;;;19.70;92.00;;;;;;6215833;23;20015;-89
2023/09/24 05:14:43;;;;;;;2.08;1.25;;;19.70;92.00;;;;;;6216395;23;20024;-87
2023/09/24 05:17:09;;;;;;;3.08;1.00;;;19.70;92.00;;;;;;6216364;23;20001;-87
2023/09/24 05:19:35;;;;;;;2.85;1.58;;;19.70;92.00;;;;;;6216124;23;20364;-86
2023/09/24 05:22:01;;;;;;;1.65;1.17;;;19.70;92.10;;;;;;6216083;23;20039;-87
2023/09/24 05:24:26;;;;;;;2.28;1.20;;;19.60;92.00;;;;;;6215792;23;20076;-89
2023/09/24 05:26:52;;;;;;;2.03;1.20;;;19.70;92.10;;;;;;6216454;23;20001;-89
2023/09/24 05:29:18;;;;;;;1.95;1.02;;;19.70;92.10;;;;;;6216577;23;20012;-89
2023/09/24 05:31:43;;;;;;;1.65;1.00;;;19.70;91.90;;;;;;6215383;23;20036;-88
2023/09/24 05:34:09;;;;;;;4.40;1.23;;;19.70;91.90;;;;;;6215404;23;20300;-88
2023/09/24 05:36:35;;;;;;;3.70;1.65;;;19.70;91.90;;;;;;6215603;23;20000;-88
2023/09/24 05:39:00;;;;;;;3.88;1.00;;;19.70;91.90;;;;;;6215624;23;20442;-88
2023/09/24 05:41:27;;;;;;;2.13;1.40;;;19.70;91.90;;;;;;6215274;23;20028;-85
2023/09/24 05:43:54;;;;;;;2.53;1.60;;;19.70;91.90;;;;;;6215858;23;20004;-85
2023/09/24 05:46:20;;;;;;;3.47;1.42;;;19.70;91.90;;;;;;6214548;23;20044;-85
2023/09/24 05:48:46;;;;;;;1.85;1.17;;;19.70;92.00;;;;;;6215519;23;20055;-85
2023/09/24 05:51:12;;;;;;;3.17;2.00;;;19.70;92.00;;;;;;6215892;23;20355;-85
2023/09/24 05:53:37;;;;;;;2.53;1.35;;;19.70;92.00;;;;;;6215891;23;20003;-85
2023/09/24 05:56:03;;;;;;;2.65;1.30;;;19.70;92.00;;;;;;6215694;23;19997;-86
2023/09/24 05:58:29;;;;;;;2.50;1.60;;;19.70;92.00;;;;;;6216040;23;20083;-85
2023/09/24 06:00:56;;;;;;;2.30;1.70;;;19.70;92.00;;;;;;6215775;23;20039;-86
2023/09/24 06:03:22;;;;;;;2.58;1.67;;;19.70;92.00;;;;;;6215717;23;20087;-86
2023/09/24 06:05:47;;;;;;;1.52;1.13;;;19.70;92.10;;;;;;6215546;23;20004;-87
2023/09/24 06:08:14;;;;;;;2.47;1.60;;;19.70;92.00;;;;;;6214398;23;20031;-88
2023/09/24 06:10:47;;;;;;;2.58;1.90;;;19.70;92.10;;;;;;6213715;23;20004;-88
2023/09/24 06:13:16;;;;;;;2.42;1.60;;;19.70;92.10;;;;;;6214409;23;20004;-86
2023/09/24 06:15:43;;;;;;;2.83;1.40;;;19.70;92.20;;;;;;6214592;23;19996;-88
2023/09/24 06:18:10;;;;;;;4.05;1.50;;;19.70;92.20;;;;;;6215031;23;20008;-88
2023/09/24 06:20:40;;;;;;;3.55;1.83;;;19.80;92.20;;;;;;6215338;23;20076;-96
2023/09/24 06:23:06;;;;;;;;;;;19.80;92.10;;;;;;6217970;23;20027;-94
2023/09/24 06:25:33;;;;;;;4.63;1.50;;;19.80;92.00;;;;;;6218642;23;19900;-88
2023/09/24 06:27:59;;;;;;;2.85;1.48;;;19.80;92.10;;;;;;6222817;23;20023;-89
2023/09/24 06:30:24;;;;;;;1.52;1.23;;;19.80;92.10;;;;;;6219575;23;20052;-95
2023/09/24 06:32:55;;;;;;;2.17;1.38;;;19.90;92.10;;;;;;6215348;23;20450;-87
2023/09/24 06:35:21;;;;;;;2.65;1.25;;;19.90;92.00;;;;;;6214264;23;20131;-88
2023/09/24 06:37:46;;;;;;;2.70;1.50;;;19.90;92.00;;;;;;6214480;23;20407;-87
2023/09/24 06:40:12;;;;;;;2.05;1.35;;;19.90;92.00;;;;;;6215537;23;20009;-88
2023/09/24 06:42:38;;;;;;;2.08;1.20;;;20.00;91.90;;;;;;6215073;23;20446;-88
2023/09/24 06:45:08;;;;;;;1.58;1.00;;;20.00;91.80;;;;;;6214906;23;20056;-83
2023/09/24 06:47:34;;;;;;;1.73;1.40;;;20.00;91.70;;;;;;6215450;23;20008;-83
2023/09/24 06:50:00;;;;;;;1.98;1.08;;;20.10;91.50;;;;;;6216014;23;20363;-87
2023/09/24 06:52:26;;;;;;;3.17;1.25;;;20.10;91.50;;;;;;6216089;23;20001;-84
2023/09/24 06:54:52;;;;;;;2.10;1.40;;;20.10;91.50;;;;;;6213969;23;20004;-85
2023/09/24 06:57:18;;;;;;;1.92;0.98;;;20.20;91.60;;;;;;6213953;23;20297;-82
2023/09/24 06:59:43;;;;;;;1.88;1.27;;;20.20;91.50;;;;;;6215385;23;20011;-88
2023/09/24 07:02:09;;;;;;;1.83;1.25;;;20.30;91.40;;;;;;6216127;23;20035;-87
2023/09/24 07:04:35;;;;;;;2.08;1.20;;;20.30;91.40;;;;;;6215227;23;20032;-88
2023/09/24 07:07:01;;;;;;;2.35;1.30;;;20.40;91.40;;;;;;6214960;23;20005;-87
2023/09/24 07:09:27;;;;;;;2.20;1.20;;;20.40;91.40;;;;;;6216085;23;20312;-87
2023/09/24 07:11:53;;;;;;;3.13;1.33;;;20.50;91.40;;;;;;6216203;23;20127;-87
2023/09/24 07:14:19;;;;;;;3.25;1.20;;;20.60;91.40;;;;;;6215892;23;20044;-87
2023/09/24 07:16:46;;;;;;;2.10;1.20;;;20.70;91.10;;;;;;6215675;23;20323;-87
2023/09/24 07:19:11;;;;;;;1.65;1.20;;;20.70;91.00;;;;;;6214120;23;20057;-87
2023/09/24 07:21:37;;;;;;;3.42;1.40;;;20.80;91.00;;;;;;6215925;23;20004;-86
2023/09/24 07:24:04;;;;;;;1.88;1.08;;;20.90;90.80;;;;;;6215792;23;20403;-87
2023/09/24 07:26:30;;;;;;;2.05;1.40;;;21.00;90.60;;;;;;6215850;23;20588;-87
2023/09/24 07:28:56;;;;;;;1.88;0.98;;;21.00;90.40;;;;;;6215280;23;20013;-87
2023/09/24 07:31:23;;;;;;;2.50;1.20;;;21.10;90.10;;;;;;6214058;23;20058;-87
2023/09/24 07:33:51;;;;;;;2.08;1.17;;;21.20;90.00;;;;;;6215971;23;20455;-87
2023/09/24 07:36:17;;;;;;;2.08;1.10;;;21.30;89.80;;;;;;6215519;23;19997;-87
2023/09/24 07:38:44;;;;;;;2.20;1.00;;;21.30;89.50;;;;;;6215600;23;20111;-87
2023/09/24 07:41:13;;;;;;;0.70;0.60;;;21.40;89.10;;;;;;6215295;23;20000;-86
2023/09/24 07:43:41;;;;;;;1.40;0.82;;;21.50;84.00;;;;;;6215761;23;20004;-86
2023/09/24 07:46:12;;;;;;;0.40;0.40;;;21.50;82.30;;;;;;6215309;23;20004;-86
2023/09/24 07:48:38;;;;;;;;;;;21.60;82.80;;;;;;6216364;23;20051;-85
2023/09/24 07:51:04;;;;;;;0.98;0.35;;;21.70;82.70;;;;;;6215821;23;19903;-86
2023/09/24 07:53:29;;;;;;;0.82;0.60;;;21.80;82.50;;;;;;6215801;23;20619;-86
2023/09/24 07:55:56;;;;;;;1.10;0.47;;;21.80;79.10;;;;;;6214768;23;20007;-85
2023/09/24 07:58:25;;;;;;;2.53;0.60;;;21.90;80.80;;;;;;6215777;23;20123;-86
2023/09/24 08:00:52;;;;;;;2.15;0.50;;;22.00;79.80;;;;;;6215525;23;20026;-85
2023/09/24 08:03:19;;;;;;;0.43;0.40;;;22.10;79.50;;;;;;6215379;23;20001;-86
2023/09/24 08:05:45;;;;;;;1.23;0.70;;;22.20;80.10;;;;;;6215659;23;20072;-86
2023/09/24 08:08:11;;;;;;;1.10;0.50;;;22.30;80.00;;;;;;6215106;23;20325;-86
2023/09/24 08:10:37;;;;;;;1.13;0.63;;;22.40;79.70;;;;;;6215453;23;20000;-86
2023/09/24 08:13:03;;;;;;;0.90;0.55;;;22.50;79.30;;;;;;6215561;23;20024;-86
2023/09/24 08:15:29;;;;;;;0.50;0.32;;;22.70;79.10;;;;;;6215291;23;20004;-86
2023/09/24 08:17:55;;;;;;;0.85;0.43;;;22.70;78.00;;;;;;6215384;23;20027;-86
2023/09/24 08:20:20;;;;;;;0.73;0.40;;;22.90;77.20;;;;;;6215661;23;20001;-87
2023/09/24 08:22:46;;;;;;;0.90;0.70;;;22.90;77.30;;;;;;6215375;23;20051;-87
2023/09/24 08:25:12;;;;;;;0.45;0.40;;;23.00;74.40;;;;;;6213529;23;20083;-87
2023/09/24 08:27:37;;;;;;;1.27;0.70;;;23.10;75.40;;;;;;6213113;23;20020;-87
2023/09/24 08:30:03;;;;;;;2.22;0.47;;;23.20;75.20;;;;;;6215638;23;20008;-87
2023/09/24 08:32:29;;;;;;;0.60;0.35;;;23.30;75.20;;;;;;6215457;23;20008;-87
2023/09/24 08:34:55;;;;;;;0.68;0.30;;;23.40;74.70;;;;;;6214815;23;20000;-87
2023/09/24 08:37:21;;;;;;;0.90;0.40;;;23.50;75.10;;;;;;6215204;23;20005;-88
2023/09/24 08:39:46;;;;;;;1.50;0.50;;;23.60;74.40;;;;;;6215186;23;20047;-88
2023/09/24 08:42:17;;;;;;;2.10;0.40;;;23.70;72.60;;;;;;6215376;23;20005;-87
2023/09/24 08:44:43;;;;;;;1.08;0.30;;;23.80;72.50;;;;;;6215017;23;20028;-86
2023/09/24 08:47:10;;;;;;;0.85;0.50;;;23.90;72.10;;;;;;6215895;23;20206;-86
2023/09/24 08:49:36;;;;;;;0.90;0.60;;;24.00;72.40;;;;;;6217651;23;20008;-87
2023/09/24 08:52:03;;;;;;;1.25;0.35;;;24.10;72.00;;;;;;6217314;23;20004;-89
2023/09/24 08:54:31;;;;;;;0.50;0.40;;;24.30;72.20;;;;;;6216847;23;20000;-88
2023/09/24 08:56:56;;;;;;;0.50;0.30;;;24.40;71.90;;;;;;6216880;23;20014;-88
2023/09/24 08:59:22;;;;;;;0.60;0.30;;;24.60;72.00;;;;;;6217364;23;20028;-88
2023/09/24 09:01:54;;;;;;;0.65;0.40;;;24.80;70.90;;;;;;6217036;23;20036;-88
2023/09/24 09:04:20;;;;;;;0.47;0.22;;;24.90;69.80;;;;;;6216834;23;20008;-86
2023/09/24 09:06:46;;;;;;;0.70;0.50;;;25.00;69.60;;;;;;6215589;23;20039;-85
2023/09/24 09:09:24;;;;;;;0.20;0.17;;;25.20;68.40;;;;;;6215454;23;20289;-85
2023/09/24 09:11:50;;;;;;;1.13;0.28;;;25.30;68.30;;;;;;6216308;23;20496;-89
2023/09/24 09:14:31;;;;;;;0.40;0.30;;;25.40;67.60;;;;;;6216640;23;20001;-88
2023/09/24 09:16:57;;;;;;;0.28;0.20;;;25.50;66.90;;;;;;6216488;23;20075;-88
2023/09/24 09:19:45;;;;;;;0.20;0.13;;;25.60;66.80;;;;;;6216008;23;20004;-88
2023/09/24 09:22:27;;;;;;;1.95;0.20;;;25.70;65.40;;;;;;6211932;23;20005;-88
2023/09/24 09:25:07;;;;;;;0.50;0.20;;;25.80;65.60;;;;;;6215359;23;20320;-90
2023/09/24 09:27:34;;;;;;;0.35;0.30;;;25.80;64.10;;;;;;6215083;23;20063;-88
2023/09/24 09:30:15;;;;;;;1.90;0.38;;;25.90;65.40;;;;;;6217011;23;20005;-88
2023/09/24 09:32:45;;;;;;;1.45;0.40;;;26.10;65.50;;;;;;6213560;23;20007;-88
2023/09/24 09:35:11;;;;;;;0.40;0.30;;;26.30;65.40;;;;;;6216316;23;20008;-88
2023/09/24 09:37:38;;;;;;;0.30;0.30;;;26.40;65.00;;;;;;6216087;23;20020;-88
2023/09/24 09:40:06;;;;;;;1.00;0.40;;;26.60;63.20;;;;;;6216810;23;20470;-87
2023/09/24 09:42:35;;;;;;;0.32;0.20;;;26.60;63.50;;;;;;6215606;23;20503;-88
2023/09/24 09:45:09;;;;;;;0.28;0.20;;;26.70;63.50;;;;;;6214963;23;20004;-87
2023/09/24 09:48:03;;;;;;;0.73;0.30;;;26.80;63.70;;;;;;6213694;23;20035;-87
2023/09/24 09:50:33;;;;;;;0.85;0.30;;;27.00;62.90;;;;;;6215247;23;20019;-88
2023/09/24 09:53:07;;;;;;;0.50;0.30;;;27.10;61.90;;;;;;6212732;23;20005;-88
2023/09/24 09:55:39;;;;;;;2.95;0.70;;;27.30;61.30;;;;;;6214754;23;20005;-84
2023/09/24 09:58:07;;;;;;;0.40;0.30;;;27.30;61.10;;;;;;6215692;23;20004;-86
2023/09/24 10:00:33;;;;;;;0.30;0.20;;;27.30;61.00;;;;;;6214995;23;20005;-87
2023/09/24 10:03:00;;;;;;;1.35;0.50;;;27.40;61.00;;;;;;6216210;23;20015;-88
2023/09/24 10:05:27;;;;;;;4.70;0.95;;;27.40;59.10;;;;;;6215993;23;20466;-88
2023/09/24 10:07:53;;;;;;;7.25;0.63;;;27.50;58.10;;;;;;6215791;23;20000;-93
2023/09/24 10:10:31;;;;;;;0.73;0.30;;;27.50;58.10;;;;;;6215753;23;20049;-94
2023/09/24 10:12:59;;;;;;;0.57;0.38;;;27.50;57.30;;;;;;6215737;23;20004;-94
2023/09/24 10:15:30;;;;;;;3.80;0.47;;;27.50;56.60;;;;;;6216130;23;20022;-93
2023/09/24 10:18:11;;;;;;;4.28;0.30;;;27.60;57.00;;;;;;6216381;23;20004;-84
2023/09/24 10:20:49;;;;;;;2.38;0.30;;;27.60;55.30;;;;;;6215979;23;20000;-95
2023/09/24 10:23:30;;;;;;;0.85;0.30;;;27.70;55.90;;;;;;6215452;23;20001;-78
2023/09/24 10:26:00;;;;;;;2.00;0.20;;;27.80;55.90;;;;;;6214415;23;20043;-78
2023/09/24 10:28:49;;;;;;;0.40;0.28;;;27.90;57.10;;;;;;6215099;23;20495;-78
2023/09/24 10:31:17;;;;;;;0.85;0.50;;;28.20;56.80;;;;;;6214714;23;20001;-79
2023/09/24 10:34:02;;;;;;;1.20;0.40;;;28.30;56.20;;;;;;6214452;23;20051;-79
2023/09/24 10:36:33;;;;;;;1.20;0.40;;;28.40;54.40;;;;;;6214519;23;20001;-79
2023/09/24 10:39:10;;;;;;;0.30;0.30;;;28.40;54.00;;;;;;6214499;23;20015;-79
2023/09/24 10:41:57;;;;;;;0.50;0.30;;;28.50;53.90;;;;;;6214788;23;20079;-78
2023/09/24 10:44:23;;;;;;;0.85;0.50;;;28.70;54.10;;;;;;6212840;23;20008;-78
2023/09/24 10:46:49;;;;;;;0.90;0.47;;;28.80;53.70;;;;;;6215662;23;20000;-78
2023/09/24 10:49:21;;;;;;;0.70;0.60;;;28.80;53.70;;;;;;6214181;23;20008;-78
2023/09/24 10:51:57;;;;;;;1.33;0.73;;;29.00;54.40;;;;;;6214834;23;20434;-78
2023/09/24 10:54:23;;;;;;;1.83;0.60;;;29.10;55.20;;;;;;6214858;23;19997;-78
2023/09/24 10:56:49;;;;;;;0.90;0.43;;;29.30;54.90;;;;;;6215599;23;20047;-79
2023/09/24 10:59:31;;;;;;;2.15;0.47;;;29.30;54.90;;;;;;6215253;23;20001;-78
2023/09/24 11:01:57;;;;;;;0.70;0.35;;;29.40;54.50;;;;;;6215273;23;20419;-78
2023/09/24 11:04:26;;;;;;;1.85;0.50;;;29.50;55.00;;;;;;6215236;23;20008;-78
2023/09/24 11:06:52;;;;;;;0.73;0.38;;;29.60;55.60;;;;;;6215080;23;20004;-79
2023/09/24 11:09:20;;;;;;;1.00;0.60;;;29.70;55.70;;;;;;6214429;23;20438;-79
2023/09/24 11:11:46;;;;;;;1.40;0.47;;;29.90;55.70;;;;;;6215717;23;20004;-78
2023/09/24 11:14:25;;;;;;;0.50;0.50;;;30.00;55.20;;;;;;6214434;23;19996;-79
2023/09/24 11:16:53;;;;;;;2.72;0.60;;;30.10;54.20;;;;;;6215189;23;20004;-79
2023/09/24 11:19:44;;;;;;;1.33;0.45;;;30.20;54.70;;;;;;6214101;23;20079;-78
2023/09/24 11:22:20;;;;;;;1.30;0.40;;;30.30;53.60;;;;;;6214841;23;19997;-77
2023/09/24 11:25:06;;;;;;;2.13;0.50;;;30.50;53.40;;;;;;6214827;23;20046;-78
2023/09/24 11:27:49;;;;;;;0.70;0.50;;;30.50;53.20;;;;;;6195077;23;20080;-75
2023/09/24 11:30:16;;;;;;;3.60;0.57;;;30.50;53.30;;;;;;6184787;23;20067;-76
2023/09/24 11:32:43;;;;;;;1.55;0.60;;;30.50;52.80;;;;;;6184699;23;20463;-80
2023/09/24 11:35:11;;;;;;;1.08;0.47;;;30.50;52.70;;;;;;6185193;23;20068;-79
2023/09/24 11:37:48;;;;;;;0.70;0.30;;;30.70;52.80;;;;;;6182407;23;20009;-80
2023/09/24 11:40:24;;;;;;;0.40;0.35;;;30.70;51.70;;;;;;6184893;23;20005;-81
2023/09/24 11:43:04;;;;;;;0.40;0.40;;;30.90;52.60;;;;;;6184413;23;20031;-81
2023/09/24 11:45:49;;;;;;;1.67;0.43;;;31.10;53.00;;;;;;6184554;23;20005;-82
2023/09/24 11:48:21;;;;;;;3.33;0.57;;;31.30;52.30;;;;;;6182271;23;20005;-82
2023/09/24 11:50:58;;;;;;;0.38;0.30;;;31.50;51.40;;;;;;6184833;23;20005;-82
2023/09/24 11:53:28;;;;;;;1.90;0.60;;;31.60;50.60;;;;;;6184702;23;20350;-82
2023/09/24 11:55:56;;;;;;;1.02;0.45;;;31.70;51.20;;;;;;6183969;23;20089;-81
2023/09/24 11:58:26;;;;;;;1.25;0.40;;;31.90;50.80;;;;;;6184645;23;20051;-76
2023/09/24 12:00:55;;;;;;;;;;;32.00;50.70;;;;;;6185719;23;20319;-76
2023/09/24 12:03:23;;;;;;;0.73;0.43;;;32.10;50.80;;;;;;6185042;23;19982;-76
2023/09/24 12:05:50;;;;;;;3.13;0.50;;;32.20;50.20;;;;;;6185685;23;20001;-76
2023/09/24 12:08:16;;;;;;;0.38;0.30;;;32.30;51.10;;;;;;6184387;23;20005;-76
2023/09/24 12:10:46;;;;;;;2.42;0.70;;;32.40;50.60;;;;;;6184866;23;20012;-74
2023/09/24 12:13:12;;;;;;;;;;;32.60;49.70;;;;;;6183031;23;20408;-75
2023/09/24 12:15:38;;;;;;;1.25;0.45;;;32.60;48.50;;;;;;6185420;23;19900;-77
2023/09/24 12:18:06;;;;;;;0.98;0.40;;;32.60;49.30;;;;;;6183830;23;20012;-76
2023/09/24 12:20:36;;;;;;;2.30;0.80;;;32.70;48.90;;;;;;6184302;23;20004;-76
2023/09/24 12:23:07;;;;;;;0.85;0.40;;;32.70;49.40;;;;;;6186814;23;20435;-76
2023/09/24 12:25:36;;;;;;;0.60;0.25;;;32.80;49.10;;;;;;6186405;23;20083;-75
2023/09/24 12:28:03;;;;;;;4.88;0.60;;;32.80;48.80;;;;;;6184283;23;20013;-76
2023/09/24 12:30:29;;;;;;;0.95;0.50;;;32.70;48.50;;;;;;6185381;23;20673;-75
2023/09/24 12:32:55;;;;;;;2.83;0.57;;;32.70;48.30;;;;;;6185579;23;20051;-75
2023/09/24 12:35:20;;;;;;;0.68;0.40;;;32.60;48.80;;;;;;6184010;23;20005;-75
2023/09/24 12:37:46;;;;;;;0.47;0.30;;;32.50;49.20;;;;;;6185908;23;20442;-76
2023/09/24 12:40:13;;;;;;;1.05;0.50;;;32.40;48.00;;;;;;6186196;23;20008;-75
2023/09/24 12:42:40;;;;;;;0.70;0.38;;;32.30;48.90;;;;;;6186428;23;20011;-81
2023/09/24 12:45:08;;;;;;;1.30;0.50;;;32.20;49.00;;;;;;6186138;23;20056;-81
2023/09/24 12:47:34;;;;;;;0.85;0.32;;;32.10;47.70;;;;;;6186592;23;20028;-82
2023/09/24 12:50:09;;;;;;;0.38;0.30;;;32.10;48.50;;;;;;6184289;23;20001;-81
2023/09/24 12:52:45;;;;;;;1.23;0.40;;;32.10;48.20;;;;;;6184275;23;20005;-81